Time;durP1;ratioP1;P1;durP2;ratioP2;P2;SDS_P1;SDS_P2;PMS_P1;PMS_P2;Temp;Humidity;BMP_temperature;BMP_pressure;BME280_temperature;BME280_humidity;BME280_pressure;Samples;Min_cycle;Max_cycle;Signal;HPM_P1;HPM_P2
2021/01/18 00:00:08;;;;;;;35.38;14.73;;;-1.00;99.90;;;;;;5055569;28;20025;-78
2021/01/18 00:02:34;;;;;;;35.75;15.35;;;-1.00;99.90;;;;;;5048451;28;20029;-77
2021/01/18 00:04:59;;;;;;;33.78;14.50;;;-1.10;99.90;;;;;;5048926;28;20025;-77
2021/01/18 00:07:25;;;;;;;37.00;15.13;;;-1.20;99.90;;;;;;5048486;28;20071;-78
2021/01/18 00:09:50;;;;;;;31.42;14.15;;;-1.10;99.90;;;;;;5053808;28;20463;-78
2021/01/18 00:12:15;;;;;;;35.90;14.90;;;-1.10;99.90;;;;;;5054630;28;20040;-77
2021/01/18 00:14:41;;;;;;;30.10;14.10;;;-1.20;99.90;;;;;;5054151;28;20424;-78
2021/01/18 00:17:07;;;;;;;35.90;15.35;;;-1.20;99.90;;;;;;5066898;28;20099;-78
2021/01/18 00:19:33;;;;;;;34.20;15.35;;;-1.30;99.90;;;;;;5068239;28;20021;-78
2021/01/18 00:21:58;;;;;;;34.53;15.10;;;-1.20;99.90;;;;;;5063814;28;20078;-77
2021/01/18 00:24:23;;;;;;;30.90;14.68;;;-1.40;99.90;;;;;;5053346;28;20483;-78
2021/01/18 00:26:49;;;;;;;35.10;14.88;;;-1.30;99.90;;;;;;5051849;28;20029;-78
2021/01/18 00:29:15;;;;;;;35.75;15.20;;;-1.30;99.90;;;;;;5059676;28;20033;-78
2021/01/18 00:31:44;;;;;;;36.05;14.57;;;-1.40;99.90;;;;;;5055211;28;20459;-77
2021/01/18 00:34:10;;;;;;;34.15;14.23;;;-1.40;99.90;;;;;;5052553;28;20106;-78
2021/01/18 00:36:36;;;;;;;35.15;15.00;;;-1.40;99.90;;;;;;5067885;28;20036;-78
2021/01/18 00:39:02;;;;;;;33.60;15.02;;;-1.50;99.90;;;;;;5062710;28;20071;-77
2021/01/18 00:41:28;;;;;;;27.77;13.75;;;-1.50;99.90;;;;;;5051868;28;20028;-78
2021/01/18 00:43:53;;;;;;;39.08;15.05;;;-1.50;99.90;;;;;;5050717;28;20033;-77
2021/01/18 00:46:19;;;;;;;30.98;14.07;;;-1.60;99.90;;;;;;5051877;28;20032;-77
2021/01/18 00:48:44;;;;;;;32.15;14.82;;;-1.60;99.90;;;;;;5051086;28;20045;-78
2021/01/18 00:51:10;;;;;;;33.10;14.77;;;-1.60;99.90;;;;;;5047693;28;20025;-78
2021/01/18 00:53:35;;;;;;;29.83;14.05;;;-1.60;99.90;;;;;;5050861;28;20060;-77
2021/01/18 00:56:01;;;;;;;36.35;15.60;;;-1.70;99.90;;;;;;5051247;28;20055;-78
2021/01/18 00:58:26;;;;;;;31.52;13.93;;;-1.60;99.90;;;;;;5057025;28;20483;-78
2021/01/18 01:00:52;;;;;;;28.13;13.35;;;-1.70;99.90;;;;;;5051449;28;20033;-78
2021/01/18 01:03:17;;;;;;;30.73;14.13;;;-1.70;99.90;;;;;;5058246;28;20082;-78
2021/01/18 01:05:43;;;;;;;35.63;14.27;;;-1.80;99.90;;;;;;5058464;28;20438;-78
2021/01/18 01:08:08;;;;;;;29.38;14.15;;;-1.80;99.90;;;;;;5069482;28;20071;-78
2021/01/18 01:10:35;;;;;;;32.95;14.50;;;-1.90;99.90;;;;;;5057949;28;20537;-78
2021/01/18 01:13:03;;;;;;;36.38;15.07;;;-1.90;99.90;;;;;;5059850;28;20115;-78
2021/01/18 01:15:29;;;;;;;34.78;13.85;;;-1.90;99.90;;;;;;5051780;28;20025;-78
2021/01/18 01:17:56;;;;;;;30.95;14.00;;;-1.90;99.90;;;;;;5054916;28;20478;-78
2021/01/18 01:20:22;;;;;;;34.20;14.75;;;-1.90;99.90;;;;;;5053540;28;20479;-78
2021/01/18 01:22:48;;;;;;;33.58;14.77;;;-2.00;99.90;;;;;;5060903;28;20032;-78
2021/01/18 01:25:16;;;;;;;33.88;14.13;;;-2.00;99.90;;;;;;5054400;28;20527;-77
2021/01/18 01:27:43;;;;;;;26.58;13.48;;;-2.00;99.90;;;;;;5057420;28;20552;-78
2021/01/18 01:30:13;;;;;;;37.70;14.52;;;-2.00;99.90;;;;;;5068801;28;20060;-78
2021/01/18 01:32:41;;;;;;;31.33;14.18;;;-2.00;99.90;;;;;;5060513;28;20064;-78
2021/01/18 01:35:08;;;;;;;31.00;14.07;;;-2.10;99.90;;;;;;5052734;28;20108;-78
2021/01/18 01:37:34;;;;;;;29.55;13.95;;;-2.20;99.90;;;;;;5051061;28;20024;-78
2021/01/18 01:40:00;;;;;;;34.95;14.80;;;-2.10;99.90;;;;;;5057601;28;20041;-78
2021/01/18 01:42:25;;;;;;;31.38;13.82;;;-2.20;99.90;;;;;;5068655;28;20028;-78
2021/01/18 01:44:51;;;;;;;33.50;14.07;;;-2.20;99.90;;;;;;5068727;28;20048;-78
2021/01/18 01:47:57;;;;;;;33.95;14.48;;;-2.20;99.90;;;;;;5050996;28;20028;-78
2021/01/18 01:50:26;;;;;;;32.83;13.82;;;-2.30;99.90;;;;;;5056634;28;20052;-77
2021/01/18 01:53:08;;;;;;;33.40;14.15;;;-2.20;99.90;;;;;;5050640;28;20040;-78
2021/01/18 01:55:34;;;;;;;30.90;14.07;;;-2.20;99.90;;;;;;5066090;28;20099;-78
2021/01/18 01:58:02;;;;;;;31.80;14.35;;;-2.20;99.90;;;;;;5058377;28;20846;-77
2021/01/18 02:00:38;;;;;;;35.65;13.98;;;-2.20;99.90;;;;;;5052863;28;20388;-78
2021/01/18 02:03:31;;;;;;;32.28;14.00;;;-2.30;99.90;;;;;;5070238;28;20119;-78
2021/01/18 02:05:56;;;;;;;33.78;14.70;;;-2.30;99.90;;;;;;5054465;28;20048;-78
2021/01/18 02:08:22;;;;;;;34.47;14.68;;;-2.30;99.90;;;;;;5066718;28;20032;-77
2021/01/18 02:10:47;;;;;;;34.40;14.68;;;-2.40;99.90;;;;;;5062477;28;20513;-78
2021/01/18 02:13:23;;;;;;;33.13;14.45;;;-2.40;99.90;;;;;;5053285;28;20017;-78
2021/01/18 02:16:04;;;;;;;32.42;14.20;;;-2.30;99.90;;;;;;5059346;28;20553;-78
2021/01/18 02:18:59;;;;;;;26.67;13.02;;;-2.30;99.90;;;;;;5057792;28;20135;-77
2021/01/18 02:21:37;;;;;;;33.25;14.10;;;-2.30;99.90;;;;;;5063120;28;20044;-78
2021/01/18 02:24:40;;;;;;;38.00;15.40;;;-2.30;99.90;;;;;;5066438;28;20028;-78
2021/01/18 02:27:36;;;;;;;28.23;13.55;;;-2.30;99.90;;;;;;5050553;28;20048;-78
2021/01/18 02:30:08;;;;;;;33.70;13.75;;;-2.30;99.90;;;;;;5062043;28;20037;-77
2021/01/18 02:33:02;;;;;;;32.50;13.18;;;-2.30;99.90;;;;;;5055929;28;20052;-78
2021/01/18 02:35:55;;;;;;;29.65;13.52;;;-2.40;99.90;;;;;;5058814;28;20029;-77
2021/01/18 02:38:31;;;;;;;36.88;13.50;;;-2.20;99.90;;;;;;5049586;28;20033;-78
2021/01/18 02:41:10;;;;;;;34.10;13.65;;;-2.10;99.90;;;;;;5049360;28;20036;-78
2021/01/18 02:43:48;;;;;;;34.88;15.07;;;-2.00;99.90;;;;;;5053066;28;20036;-77
2021/01/18 02:46:16;;;;;;;34.03;15.48;;;-1.80;99.90;;;;;;5057576;28;20041;-78
2021/01/18 02:48:42;;;;;;;36.88;15.60;;;-1.60;99.90;;;;;;5054420;28;20036;-77
2021/01/18 02:51:09;;;;;;;37.42;15.07;;;-1.50;99.90;;;;;;5066873;28;20035;-78
2021/01/18 02:53:37;;;;;;;37.58;16.75;;;-1.50;99.90;;;;;;5069619;28;20134;-78
2021/01/18 02:56:03;;;;;;;40.78;16.30;;;-1.40;99.90;;;;;;5062042;28;20795;-78
2021/01/18 02:58:34;;;;;;;37.75;15.40;;;-1.30;99.90;;;;;;5063016;28;20032;-79
2021/01/18 03:01:15;;;;;;;36.85;15.65;;;-1.20;99.90;;;;;;5060545;28;20051;-78
2021/01/18 03:04:05;;;;;;;37.42;16.35;;;-1.20;99.90;;;;;;5055773;28;20044;-77
2021/01/18 03:06:40;;;;;;;42.90;16.80;;;-1.20;99.90;;;;;;5051015;28;20036;-78
2021/01/18 03:09:16;;;;;;;41.67;15.63;;;-1.10;99.90;;;;;;5066374;28;20036;-78
2021/01/18 03:11:45;;;;;;;36.42;15.77;;;-1.00;99.90;;;;;;5055678;28;20063;-78
2021/01/18 03:14:18;;;;;;;36.45;15.13;;;-0.90;99.90;;;;;;5059897;28;20027;-78
2021/01/18 03:16:49;;;;;;;32.20;14.05;;;-0.90;99.90;;;;;;5059651;28;20090;-78
2021/01/18 03:19:17;;;;;;;37.92;16.33;;;-1.10;99.90;;;;;;5049187;28;20037;-78
2021/01/18 03:21:46;;;;;;;38.17;15.20;;;-1.00;99.90;;;;;;5049754;28;20076;-78
2021/01/18 03:24:19;;;;;;;40.58;15.82;;;-1.00;99.90;;;;;;5055803;28;20020;-78
2021/01/18 03:26:45;;;;;;;38.67;15.70;;;-1.10;99.90;;;;;;5063646;28;20437;-78
2021/01/18 03:29:11;;;;;;;32.67;15.88;;;-0.90;99.90;;;;;;5056352;28;20029;-78
2021/01/18 03:31:36;;;;;;;38.28;16.83;;;-0.80;99.90;;;;;;5054589;28;20029;-78
2021/01/18 03:34:02;;;;;;;37.35;15.95;;;-0.70;99.90;;;;;;5048963;28;20654;-78
2021/01/18 03:36:30;;;;;;;37.33;16.13;;;-0.70;99.90;;;;;;5049339;28;20024;-77
2021/01/18 03:38:55;;;;;;;31.40;15.18;;;-0.70;99.90;;;;;;5050896;28;20487;-78
2021/01/18 03:41:21;;;;;;;34.38;15.82;;;-0.60;99.90;;;;;;5067607;28;20062;-78
2021/01/18 03:43:46;;;;;;;38.47;17.10;;;-0.60;99.90;;;;;;5050860;28;20116;-78
2021/01/18 03:46:12;;;;;;;41.85;17.08;;;-0.60;99.90;;;;;;5049077;28;20407;-78
2021/01/18 03:48:37;;;;;;;36.72;15.82;;;-0.50;99.90;;;;;;5047439;28;20045;-78
2021/01/18 03:51:03;;;;;;;36.90;15.98;;;-0.60;99.90;;;;;;5048893;28;20025;-77
2021/01/18 03:53:28;;;;;;;42.92;16.73;;;-0.60;99.90;;;;;;5057552;28;20476;-78
2021/01/18 03:55:54;;;;;;;33.38;16.20;;;-0.60;99.90;;;;;;5067129;28;20111;-78
2021/01/18 03:58:19;;;;;;;36.80;16.45;;;-0.60;99.90;;;;;;5065731;28;20024;-78
2021/01/18 04:00:45;;;;;;;42.55;16.55;;;-0.50;99.90;;;;;;5069994;28;20066;-77
2021/01/18 04:03:10;;;;;;;43.83;15.90;;;-0.50;99.90;;;;;;5072802;28;20475;-77
2021/01/18 04:05:36;;;;;;;34.08;15.65;;;-0.50;99.90;;;;;;5058867;28;20028;-77
2021/01/18 04:08:01;;;;;;;41.20;16.88;;;-0.60;99.90;;;;;;5063285;28;20496;-78
2021/01/18 04:10:28;;;;;;;34.92;15.55;;;-0.60;99.90;;;;;;5063754;28;20025;-78
2021/01/18 04:12:55;;;;;;;39.47;17.30;;;-0.70;99.90;;;;;;5054684;28;20025;-77
2021/01/18 04:15:23;;;;;;;36.65;15.55;;;-0.60;99.90;;;;;;5053254;28;20032;-78
2021/01/18 04:17:51;;;;;;;37.75;16.30;;;-0.60;99.90;;;;;;5053652;28;20029;-78
2021/01/18 04:20:18;;;;;;;37.17;15.30;;;-0.50;99.90;;;;;;5066662;28;20043;-78
2021/01/18 04:22:52;;;;;;;35.10;16.35;;;-0.50;99.90;;;;;;5070831;28;20162;-78
2021/01/18 04:25:20;;;;;;;37.38;15.70;;;-0.40;99.90;;;;;;5061318;28;20428;-77
2021/01/18 04:27:56;;;;;;;33.13;15.35;;;-0.50;99.90;;;;;;5051698;28;20116;-78
2021/01/18 04:30:23;;;;;;;41.75;16.48;;;-0.40;99.90;;;;;;5054654;28;20434;-78
2021/01/18 04:32:54;;;;;;;33.53;15.38;;;-0.40;99.90;;;;;;5058107;28;20048;-78
2021/01/18 04:35:19;;;;;;;40.58;15.88;;;-0.50;99.90;;;;;;5055558;28;20521;-78
2021/01/18 04:37:45;;;;;;;39.67;16.13;;;-0.50;99.90;;;;;;5070529;28;20020;-78
2021/01/18 04:40:11;;;;;;;36.53;15.82;;;-0.60;99.90;;;;;;5063118;28;20028;-77
2021/01/18 04:42:37;;;;;;;36.58;14.98;;;-0.70;99.90;;;;;;5052277;28;20029;-78
2021/01/18 04:45:03;;;;;;;38.97;16.23;;;-0.50;99.90;;;;;;5054265;28;20103;-77
2021/01/18 04:47:30;;;;;;;34.97;16.33;;;-0.60;99.90;;;;;;5062800;28;20028;-77
2021/01/18 04:49:56;;;;;;;37.72;16.40;;;-0.60;99.90;;;;;;5065648;28;20120;-78
2021/01/18 04:52:46;;;;;;;42.83;17.25;;;-0.50;99.90;;;;;;5056111;28;20021;-77
2021/01/18 04:55:32;;;;;;;37.50;16.55;;;-0.60;99.90;;;;;;5068648;28;20040;-77
2021/01/18 04:58:18;;;;;;;41.47;16.63;;;-0.50;99.90;;;;;;5059909;28;20020;-78
2021/01/18 05:00:45;;;;;;;37.75;16.27;;;-0.40;99.90;;;;;;5066481;28;20530;-78
2021/01/18 05:03:16;;;;;;;42.85;17.70;;;-0.50;99.90;;;;;;5063600;28;20108;-78
2021/01/18 05:06:15;;;;;;;41.38;16.90;;;-0.60;99.90;;;;;;5061301;28;20482;-78
2021/01/18 05:09:02;;;;;;;41.35;16.33;;;-0.50;99.90;;;;;;5057353;28;20097;-78
2021/01/18 05:11:27;;;;;;;39.42;17.05;;;-0.50;99.90;;;;;;5052727;28;20116;-79
2021/01/18 05:14:00;;;;;;;34.90;16.02;;;-0.50;99.90;;;;;;5056855;28;20119;-78
2021/01/18 05:16:29;;;;;;;38.67;17.20;;;-0.50;99.90;;;;;;5065097;28;20112;-78
2021/01/18 05:18:56;;;;;;;39.47;16.77;;;-0.50;99.90;;;;;;5051732;28;20037;-78
2021/01/18 05:21:23;;;;;;;41.83;17.23;;;-0.40;99.90;;;;;;5059477;28;20033;-78
2021/01/18 05:23:48;;;;;;;38.10;17.88;;;-0.40;99.90;;;;;;5055173;28;20097;-78
2021/01/18 05:26:18;;;;;;;40.47;17.35;;;-0.40;99.90;;;;;;5064094;28;20411;-77
2021/01/18 05:28:48;;;;;;;41.95;17.45;;;-0.40;99.90;;;;;;5062031;28;20044;-76
2021/01/18 05:31:26;;;;;;;37.28;16.73;;;-0.40;99.90;;;;;;5054042;28;20063;-76
2021/01/18 05:33:52;;;;;;;39.90;16.92;;;-0.30;99.90;;;;;;5065010;28;20078;-75
2021/01/18 05:36:38;;;;;;;36.53;17.15;;;-0.40;99.90;;;;;;5060225;28;20054;-74
2021/01/18 05:39:23;;;;;;;39.47;16.50;;;-0.40;99.90;;;;;;5059925;28;20037;-75
2021/01/18 05:41:51;;;;;;;38.22;17.17;;;-0.40;99.90;;;;;;5060845;28;20043;-76
2021/01/18 05:44:17;;;;;;;39.20;16.90;;;-0.40;99.90;;;;;;5050485;28;20400;-77
2021/01/18 05:46:47;;;;;;;39.28;17.80;;;-0.40;99.90;;;;;;5056807;28;20036;-76
2021/01/18 05:49:19;;;;;;;45.22;17.33;;;-0.40;99.90;;;;;;5060329;28;20037;-76
2021/01/18 05:51:51;;;;;;;37.35;16.90;;;-0.40;99.90;;;;;;5051713;28;20037;-77
2021/01/18 05:54:24;;;;;;;34.22;16.48;;;-0.40;99.90;;;;;;5059288;28;20033;-78
2021/01/18 05:56:52;;;;;;;45.45;18.85;;;-0.40;99.90;;;;;;5061401;28;20029;-78
2021/01/18 05:59:25;;;;;;;34.20;16.23;;;-0.40;99.90;;;;;;5069100;28;20491;-76
2021/01/18 06:01:53;;;;;;;37.95;16.95;;;-0.30;99.90;;;;;;5059119;28;20112;-77
2021/01/18 06:04:21;;;;;;;36.30;15.60;;;-0.30;99.90;;;;;;5066924;28;20510;-75
2021/01/18 06:06:53;;;;;;;40.70;17.20;;;-0.40;99.90;;;;;;5066508;28;20049;-75
2021/01/18 06:09:20;;;;;;;39.25;16.98;;;-0.40;99.90;;;;;;5063169;28;20060;-76
2021/01/18 06:11:45;;;;;;;42.10;17.63;;;-0.30;99.90;;;;;;5070427;28;20562;-76
2021/01/18 06:14:11;;;;;;;39.22;16.95;;;-0.30;99.90;;;;;;5053964;28;20112;-74
2021/01/18 06:16:39;;;;;;;38.67;16.85;;;-0.40;99.90;;;;;;5064109;28;20025;-76
2021/01/18 06:19:08;;;;;;;40.33;17.48;;;-0.30;99.90;;;;;;5057871;28;20033;-77
2021/01/18 06:21:35;;;;;;;37.97;16.33;;;-0.30;99.90;;;;;;5054591;28;20025;-75
2021/01/18 06:24:17;;;;;;;38.22;16.65;;;-0.40;99.90;;;;;;5056542;28;20058;-75
2021/01/18 06:26:44;;;;;;;38.30;16.83;;;-0.40;99.90;;;;;;5064879;28;20085;-75
2021/01/18 06:29:10;;;;;;;37.00;16.40;;;-0.30;99.90;;;;;;5058190;28;20025;-77
2021/01/18 06:31:54;;;;;;;38.10;16.58;;;-0.40;99.90;;;;;;5058186;28;20391;-78
2021/01/18 06:34:28;;;;;;;43.30;17.50;;;-0.30;99.90;;;;;;5050844;28;20025;-77
2021/01/18 06:36:58;;;;;;;40.33;17.80;;;-0.30;99.90;;;;;;5050069;28;20058;-77
2021/01/18 06:39:28;;;;;;;42.10;17.08;;;-0.30;99.90;;;;;;5063401;28;20037;-77
2021/01/18 06:41:56;;;;;;;38.95;17.33;;;-0.40;99.90;;;;;;5064874;28;20082;-77
2021/01/18 06:44:33;;;;;;;42.92;17.92;;;-0.30;99.90;;;;;;5055256;28;20050;-77
2021/01/18 06:46:58;;;;;;;43.72;17.30;;;-0.30;99.90;;;;;;5052375;28;20503;-77
2021/01/18 06:49:26;;;;;;;43.65;18.90;;;-0.40;99.90;;;;;;5060029;28;20043;-77
2021/01/18 06:51:56;;;;;;;38.65;17.27;;;-0.40;99.90;;;;;;5054160;28;20491;-76
2021/01/18 06:54:27;;;;;;;40.55;17.92;;;-0.40;99.90;;;;;;5052901;28;20029;-76
2021/01/18 06:57:04;;;;;;;42.83;18.92;;;-0.30;99.90;;;;;;5047914;28;20715;-76
2021/01/18 06:59:50;;;;;;;43.70;18.65;;;-0.20;99.90;;;;;;5068185;28;20029;-76
2021/01/18 07:02:19;;;;;;;39.67;17.48;;;-0.20;99.90;;;;;;5067009;28;20044;-76
2021/01/18 07:04:47;;;;;;;39.70;16.52;;;-0.20;99.90;;;;;;5067779;28;20028;-76
2021/01/18 07:07:26;;;;;;;36.72;15.85;;;-0.30;99.90;;;;;;5065902;28;20028;-76
2021/01/18 07:09:59;;;;;;;37.85;16.48;;;-0.20;99.90;;;;;;5055126;28;20035;-76
2021/01/18 07:12:25;;;;;;;38.88;16.75;;;-0.20;99.90;;;;;;5064198;28;20024;-76
2021/01/18 07:15:05;;;;;;;36.17;16.08;;;-0.10;99.90;;;;;;5057251;28;20033;-77
2021/01/18 07:17:55;;;;;;;38.63;17.50;;;-0.10;99.90;;;;;;5054705;28;20471;-82
2021/01/18 07:20:23;;;;;;;36.33;17.13;;;-0.10;99.90;;;;;;5063174;28;20032;-78
2021/01/18 07:23:07;;;;;;;36.63;17.40;;;-0.10;99.90;;;;;;5051662;28;20043;-75
2021/01/18 07:25:38;;;;;;;34.25;16.35;;;-0.10;99.90;;;;;;5068349;28;20494;-74
2021/01/18 07:28:05;;;;;;;37.88;16.73;;;-0.20;99.90;;;;;;5055740;28;20132;-75
2021/01/18 07:30:36;;;;;;;39.08;17.67;;;-0.20;99.90;;;;;;5056106;28;20082;-74
2021/01/18 07:33:23;;;;;;;37.93;17.97;;;-0.20;99.90;;;;;;5051903;28;20024;-73
2021/01/18 07:35:50;;;;;;;47.35;21.10;;;-0.20;99.90;;;;;;5058807;28;20362;-76
2021/01/18 07:38:17;;;;;;;35.67;17.08;;;-0.10;99.90;;;;;;5050362;28;20159;-77
2021/01/18 07:41:07;;;;;;;37.42;17.60;;;-0.10;99.90;;;;;;5061498;28;20371;-76
2021/01/18 07:43:34;;;;;;;45.33;19.60;;;0.00;99.90;;;;;;5064562;28;20498;-76
2021/01/18 07:46:25;;;;;;;48.95;20.63;;;0.00;99.90;;;;;;5063066;28;20076;-76
2021/01/18 07:48:52;;;;;;;36.13;17.27;;;-0.10;99.90;;;;;;5062726;28;20085;-76
2021/01/18 07:51:29;;;;;;;43.75;17.25;;;-0.10;99.90;;;;;;5062353;28;20036;-76
2021/01/18 07:53:55;;;;;;;36.40;16.98;;;0.00;99.90;;;;;;5057929;28;20414;-76
2021/01/18 07:56:25;;;;;;;39.65;17.35;;;0.10;99.90;;;;;;5064013;28;20036;-76
2021/01/18 07:59:05;;;;;;;43.30;18.27;;;0.10;99.90;;;;;;5060276;28;20029;-76
2021/01/18 08:01:37;;;;;;;40.17;17.65;;;0.10;99.90;;;;;;5060126;28;20728;-76
2021/01/18 08:04:21;;;;;;;36.80;17.40;;;0.10;99.90;;;;;;5057208;28;20032;-77
2021/01/18 08:07:06;;;;;;;41.05;17.30;;;0.10;99.90;;;;;;5050085;28;20029;-77
2021/01/18 08:09:33;;;;;;;41.10;18.33;;;0.10;99.90;;;;;;5054780;28;20048;-76
2021/01/18 08:12:33;;;;;;;41.88;18.80;;;0.10;99.90;;;;;;5059701;28;20025;-76
2021/01/18 08:15:05;;;;;;;40.97;17.95;;;0.10;99.90;;;;;;5060604;28;20069;-79
2021/01/18 08:17:30;;;;;;;41.83;19.23;;;0.20;99.90;;;;;;5064037;28;20032;-80
2021/01/18 08:20:06;;;;;;;39.50;17.73;;;0.20;99.90;;;;;;5066670;28;20021;-79
2021/01/18 08:22:32;;;;;;;44.17;17.80;;;0.10;99.90;;;;;;5055918;28;20028;-77
2021/01/18 08:24:57;;;;;;;40.92;18.52;;;0.20;99.90;;;;;;5065833;28;20471;-77
2021/01/18 08:27:41;;;;;;;37.17;17.50;;;0.20;99.90;;;;;;5060393;28;20021;-77
2021/01/18 08:30:29;;;;;;;38.22;17.95;;;0.20;99.90;;;;;;5063351;28;20048;-80
2021/01/18 08:33:03;;;;;;;39.80;17.95;;;0.20;99.90;;;;;;5057599;28;20051;-76
2021/01/18 08:35:47;;;;;;;39.50;17.92;;;0.30;99.90;;;;;;5061786;28;20021;-76
2021/01/18 08:38:39;;;;;;;42.95;18.20;;;0.40;99.90;;;;;;5063207;28;20387;-75
2021/01/18 08:41:09;;;;;;;39.10;17.92;;;0.30;99.90;;;;;;5061096;28;20110;-76
2021/01/18 08:43:49;;;;;;;39.53;18.53;;;0.30;99.90;;;;;;5064330;28;20025;-75
2021/01/18 08:46:35;;;;;;;42.45;18.60;;;0.40;99.90;;;;;;5064808;28;20048;-76
2021/01/18 08:49:33;;;;;;;44.40;19.40;;;0.30;99.90;;;;;;5067341;28;20628;-76
2021/01/18 08:52:00;;;;;;;35.45;17.33;;;0.30;99.90;;;;;;5068118;28;20418;-76
2021/01/18 08:54:30;;;;;;;37.30;18.10;;;0.30;99.90;;;;;;5068945;28;20032;-76
2021/01/18 08:57:18;;;;;;;43.07;19.23;;;0.30;99.90;;;;;;5066729;28;20039;-76
2021/01/18 08:59:45;;;;;;;41.75;18.20;;;0.40;99.90;;;;;;5067766;28;20033;-76
2021/01/18 09:02:17;;;;;;;42.55;17.95;;;0.30;99.90;;;;;;5064466;28;20073;-85
2021/01/18 09:04:43;;;;;;;41.72;18.63;;;0.40;99.90;;;;;;5064235;28;20491;-84
2021/01/18 09:07:10;;;;;;;39.90;19.38;;;0.50;99.90;;;;;;5062534;28;20063;-84
2021/01/18 09:09:39;;;;;;;44.70;20.48;;;0.50;99.90;;;;;;5062262;28;20046;-80
2021/01/18 09:12:10;;;;;;;42.20;19.55;;;0.50;99.90;;;;;;5066112;28;20479;-76
2021/01/18 09:14:36;;;;;;;;;;;0.50;99.90;;;;;;5064941;28;20035;-76
2021/01/18 09:17:11;;;;;;;45.75;18.50;;;0.50;99.90;;;;;;5065456;28;20446;-80
2021/01/18 09:19:52;;;;;;;43.05;19.25;;;0.50;99.90;;;;;;5067371;28;20098;-81
2021/01/18 09:22:22;;;;;;;43.17;19.25;;;0.60;99.90;;;;;;5066316;28;20106;-80
2021/01/18 09:24:49;;;;;;;48.00;20.35;;;0.70;99.90;;;;;;5073835;28;20040;-77
2021/01/18 09:27:19;;;;;;;43.35;19.20;;;0.80;99.90;;;;;;5064740;28;20040;-76
2021/01/18 09:30:03;;;;;;;46.58;20.00;;;0.90;99.90;;;;;;5066638;28;20494;-74
2021/01/18 09:32:29;;;;;;;41.92;19.38;;;0.80;99.90;;;;;;5069483;28;20646;-75
2021/01/18 09:35:07;;;;;;;38.22;18.10;;;0.90;99.90;;;;;;5066906;28;20059;-76
2021/01/18 09:37:33;;;;;;;45.83;19.50;;;0.90;99.90;;;;;;5071068;28;20070;-73
2021/01/18 09:40:04;;;;;;;42.40;20.40;;;0.90;99.90;;;;;;5070268;28;20036;-75
2021/01/18 09:42:31;;;;;;;39.83;19.17;;;1.10;99.90;;;;;;5066671;28;20029;-76
2021/01/18 09:44:57;;;;;;;38.88;19.85;;;1.20;99.90;;;;;;5075345;28;20615;-75
2021/01/18 09:47:24;;;;;;;47.45;21.20;;;1.20;99.90;;;;;;5067167;28;20035;-75
2021/01/18 09:49:53;;;;;;;51.08;22.60;;;1.10;99.90;;;;;;5066240;28;20139;-77
2021/01/18 09:52:18;;;;;;;44.17;20.75;;;1.10;99.90;;;;;;5069718;28;20033;-77
2021/01/18 09:54:49;;;;;;;43.28;20.17;;;1.10;99.90;;;;;;5066657;28;20155;-76
2021/01/18 09:57:15;;;;;;;47.27;20.77;;;1.10;99.90;;;;;;5067812;28;20027;-76
2021/01/18 09:59:42;;;;;;;46.83;21.25;;;1.10;99.90;;;;;;5067839;28;20340;-77
2021/01/18 10:02:13;;;;;;;41.85;20.88;;;1.00;99.90;;;;;;5063679;28;20542;-75
2021/01/18 10:04:40;;;;;;;41.67;19.35;;;1.00;99.90;;;;;;5069536;28;20031;-77
2021/01/18 10:07:09;;;;;;;42.78;19.23;;;1.10;99.90;;;;;;5068359;28;20394;-77
2021/01/18 10:09:36;;;;;;;44.55;20.60;;;1.20;99.90;;;;;;5064048;28;20124;-76
2021/01/18 10:12:04;;;;;;;41.38;19.80;;;1.10;99.90;;;;;;5070513;28;20024;-76
2021/01/18 10:14:30;;;;;;;38.30;19.35;;;1.10;99.90;;;;;;5067518;28;20060;-77
2021/01/18 10:17:07;;;;;;;42.22;18.38;;;1.30;99.90;;;;;;5063837;28;20039;-77
2021/01/18 10:19:37;;;;;;;41.33;20.20;;;1.20;99.90;;;;;;5062973;28;20554;-77
2021/01/18 10:22:05;;;;;;;41.85;19.73;;;1.20;99.90;;;;;;5071198;28;20059;-77
2021/01/18 10:24:32;;;;;;;40.63;19.75;;;1.30;99.90;;;;;;5068882;28;20036;-78
2021/01/18 10:27:03;;;;;;;43.67;19.35;;;1.30;99.90;;;;;;5067209;28;20494;-76
2021/01/18 10:29:30;;;;;;;40.88;20.48;;;1.30;99.90;;;;;;5073328;28;20064;-77
2021/01/18 10:31:56;;;;;;;39.47;19.42;;;1.40;99.90;;;;;;5075515;28;20028;-81
2021/01/18 10:34:21;;;;;;;40.15;19.98;;;1.40;99.90;;;;;;5070753;28;20031;-78
2021/01/18 10:36:51;;;;;;;45.15;20.40;;;1.50;99.90;;;;;;5075389;28;20111;-78
2021/01/18 10:39:28;;;;;;;46.33;20.85;;;1.40;99.90;;;;;;5073655;28;20184;-78
2021/01/18 10:42:00;;;;;;;46.13;21.90;;;1.30;99.90;;;;;;5074184;28;20024;-78
2021/01/18 10:44:25;;;;;;;47.67;22.33;;;1.40;99.90;;;;;;5062899;28;20078;-78
2021/01/18 10:46:51;;;;;;;48.80;23.75;;;1.40;99.90;;;;;;5072063;28;20032;-77
2021/01/18 10:49:28;;;;;;;47.58;22.20;;;1.50;99.90;;;;;;5070172;28;20051;-79
2021/01/18 10:52:14;;;;;;;43.50;21.10;;;1.50;99.90;;;;;;5073728;28;20033;-78
2021/01/18 10:54:39;;;;;;;43.80;20.60;;;1.60;99.90;;;;;;5073597;28;20032;-78
2021/01/18 10:57:20;;;;;;;43.10;21.10;;;1.60;99.90;;;;;;5073315;28;20165;-78
2021/01/18 10:59:45;;;;;;;50.20;21.60;;;1.60;99.90;;;;;;5070980;28;20534;-78
2021/01/18 11:02:13;;;;;;;38.95;20.15;;;1.70;99.90;;;;;;5067658;28;20118;-77
2021/01/18 11:04:46;;;;;;;45.08;20.80;;;1.70;99.90;;;;;;5069541;28;20482;-80
2021/01/18 11:07:13;;;;;;;45.42;21.38;;;1.70;99.90;;;;;;5074154;28;20036;-79
2021/01/18 11:09:39;;;;;;;41.97;20.08;;;1.80;99.90;;;;;;5068474;28;20040;-78
2021/01/18 11:12:06;;;;;;;41.80;20.00;;;1.80;99.90;;;;;;5070324;28;20032;-78
2021/01/18 11:14:32;;;;;;;42.88;20.25;;;1.80;99.90;;;;;;5069163;28;20511;-78
2021/01/18 11:17:07;;;;;;;46.08;20.48;;;1.80;99.90;;;;;;5072358;28;20542;-80
2021/01/18 11:19:33;;;;;;;41.85;20.05;;;1.70;99.90;;;;;;5069964;28;20032;-80
2021/01/18 11:21:58;;;;;;;41.83;19.33;;;1.80;99.90;;;;;;5069671;28;20031;-79
2021/01/18 11:24:24;;;;;;;46.72;21.35;;;1.90;99.90;;;;;;5058465;28;20573;-78
2021/01/18 11:26:51;;;;;;;45.15;19.83;;;1.80;99.90;;;;;;5065574;28;20085;-79
2021/01/18 11:29:17;;;;;;;45.53;20.40;;;1.80;99.90;;;;;;5066709;28;20085;-79
2021/01/18 11:31:44;;;;;;;47.63;20.65;;;1.90;99.90;;;;;;5069586;28;20043;-80
2021/01/18 11:34:11;;;;;;;50.65;20.92;;;1.90;99.90;;;;;;5063198;28;20017;-75
2021/01/18 11:36:40;;;;;;;46.33;20.77;;;1.80;99.90;;;;;;5068512;28;20037;-76
2021/01/18 11:39:07;;;;;;;43.97;19.77;;;1.90;99.90;;;;;;5071070;28;20073;-76
2021/01/18 11:41:33;;;;;;;44.60;19.83;;;1.90;99.90;;;;;;5070667;28;20029;-77
2021/01/18 11:43:59;;;;;;;46.08;21.35;;;1.90;99.90;;;;;;5071385;28;20138;-76
2021/01/18 11:46:25;;;;;;;44.53;21.13;;;1.90;99.90;;;;;;5061136;28;20557;-77
2021/01/18 11:48:50;;;;;;;53.35;22.45;;;2.00;99.90;;;;;;5063558;28;20040;-77
2021/01/18 11:51:16;;;;;;;46.88;20.98;;;2.00;99.90;;;;;;5061044;28;20482;-77
2021/01/18 11:53:42;;;;;;;45.80;21.30;;;2.10;99.90;;;;;;5064550;28;20020;-76
2021/01/18 11:56:08;;;;;;;46.83;21.42;;;2.00;99.90;;;;;;5062519;28;20020;-77
2021/01/18 11:58:33;;;;;;;51.40;21.20;;;2.00;99.90;;;;;;5068474;28;20453;-76
2021/01/18 12:00:59;;;;;;;46.63;21.00;;;2.00;99.90;;;;;;5070165;28;20032;-76
2021/01/18 12:03:25;;;;;;;56.67;25.13;;;2.00;99.90;;;;;;5063347;28;20368;-76
2021/01/18 12:05:50;;;;;;;54.25;23.38;;;2.00;99.90;;;;;;5068031;28;20045;-76
2021/01/18 12:08:16;;;;;;;51.72;20.77;;;2.10;99.90;;;;;;5067739;28;20126;-82
2021/01/18 12:10:41;;;;;;;53.55;23.73;;;2.10;99.90;;;;;;5067609;28;20480;-84
2021/01/18 12:13:07;;;;;;;47.65;22.35;;;2.20;99.90;;;;;;5069708;28;20039;-81
2021/01/18 12:15:33;;;;;;;46.75;21.95;;;2.20;99.90;;;;;;5065928;28;20039;-84
2021/01/18 12:17:59;;;;;;;51.47;21.63;;;2.10;99.90;;;;;;5070365;28;20100;-84
2021/01/18 12:20:25;;;;;;;56.75;22.23;;;2.20;99.90;;;;;;5074753;28;20547;-84
2021/01/18 12:22:55;;;;;;;45.90;21.15;;;2.10;99.90;;;;;;5072291;28;20130;-78
2021/01/18 12:25:21;;;;;;;46.95;21.50;;;2.30;99.90;;;;;;5076516;28;20032;-79
2021/01/18 12:27:48;;;;;;;50.78;22.77;;;2.20;99.90;;;;;;5072181;28;20055;-80
2021/01/18 12:30:17;;;;;;;64.97;23.33;;;2.20;99.90;;;;;;5074540;28;20024;-77
2021/01/18 12:32:43;;;;;;;53.83;23.10;;;2.20;99.90;;;;;;5075249;28;20029;-78
2021/01/18 12:35:09;;;;;;;50.03;21.50;;;2.30;99.90;;;;;;5071579;28;20039;-80
2021/01/18 12:37:35;;;;;;;52.47;21.00;;;2.30;99.90;;;;;;5071893;28;20165;-80
2021/01/18 12:40:00;;;;;;;49.45;21.38;;;2.40;99.90;;;;;;5068571;28;20028;-80
2021/01/18 12:42:26;;;;;;;56.00;22.30;;;2.50;99.90;;;;;;5063203;28;20102;-81
2021/01/18 12:44:51;;;;;;;51.92;21.42;;;2.40;99.90;;;;;;5070338;28;20777;-81
2021/01/18 12:47:17;;;;;;;50.28;21.55;;;2.40;99.90;;;;;;5074931;28;20114;-79